KFTK

Godman AAF Airport

Fort Knox, Kentucky, USA
METAR KFTK 271156Z AUTO 00000KT 8SM -RA SCT045 19/19 A2994 RMK AO2 SLP136 P0025 60049 70049 T01940194 10214 20189 50014
Observed Flight Rules
May-27 @ 11:56 UTC (10 minutes ago) Visual Flight Rules
Visibility Clouds Conditions
8 miles
  • Scattered at 4,500' AGL
  • Light Rain
Temperatures Readings Precipitation
Current 19°C / 66°F
Dewpoint 19°C / 66°F
Humidity 100%
Altimeter 29.94" Hg
Pressure 1013.6 hPa
Elevation 230
Current Rain 0.25
METAR KFTK 271156Z AUTO 00000KT 8SM -RA SCT045 19/19 A2994 RMK AO2 SLP136 P0025 60049 70049 T01940194 10214 20189 50014
Observed Flight Rules
May-27 @ 11:56 UTC
(10 minutes ago)
VFR
Clouds
  • Scattered at 4,500' AGL
Conditions
  • Light Rain
Temperature Dewpoint
19°C / 66°F 19°C / 66°F
Humidity Altimeter Pressure
100% 29.94" Hg 1013.6 hPa
Current Rain
0.25